createdAt,value
2022-08-11T00:03:43.360Z,100756.25
2022-08-11T00:08:51.071Z,100760.88
2022-08-11T00:13:52.984Z,100750.78
2022-08-11T00:18:56.921Z,100754.81
2022-08-11T00:24:01.185Z,100759.28
2022-08-11T00:29:10.813Z,100772.78
2022-08-11T00:34:13.422Z,100778.84
2022-08-11T00:39:16.507Z,100763.59
2022-08-11T00:44:40.264Z,100774.16
2022-08-11T00:50:01.440Z,100769.56
2022-08-11T00:55:17.815Z,100775.31
2022-08-11T01:00:23.404Z,100779.94
2022-08-11T01:05:43.909Z,100780.22
2022-08-11T01:10:58.531Z,100777.97
2022-08-11T01:16:14.273Z,100765.53
2022-08-11T01:21:46.768Z,100781.63
2022-08-11T01:27:18.908Z,100773.88
2022-08-11T01:32:43.328Z,100777.09
2022-08-11T01:38:12.888Z,100777.66
2022-08-11T01:43:46.630Z,100776.50
2022-08-11T01:50:08.549Z,100772.28
2022-08-11T01:54:49.093Z,100768.59
2022-08-11T02:00:00.848Z,100768.47
2022-08-11T02:05:21.284Z,100763.91
2022-08-11T02:11:06.298Z,100768.03
2022-08-11T02:16:13.673Z,100763.72
2022-08-11T02:21:42.743Z,100761.00
2022-08-11T02:26:50.491Z,100763.25
2022-08-11T02:32:35.849Z,100764.19
2022-08-11T02:37:50.351Z,100762.84
2022-08-11T02:43:05.718Z,100758.72
2022-08-11T02:48:44.079Z,100765.94
2022-08-11T02:54:13.807Z,100765.91
2022-08-11T02:59:39.120Z,100766.34
2022-08-11T03:04:55.950Z,100775.28
2022-08-11T03:10:13.351Z,100782.03
2022-08-11T03:15:47.125Z,100794.88
2022-08-11T03:21:02.595Z,100791.72
2022-08-11T03:26:46.116Z,100789.59
2022-08-11T03:32:00.606Z,100797.78
2022-08-11T03:37:42.661Z,100781.88
2022-08-11T03:42:50.633Z,100787.94
2022-08-11T03:48:11.800Z,100785.63
2022-08-11T03:53:32.415Z,100783.91
2022-08-11T03:58:50.256Z,100783.47
2022-08-11T04:04:24.287Z,100771.25
2022-08-11T04:10:05.295Z,100772.13
2022-08-11T04:15:44.286Z,100774.41
2022-08-11T04:21:00.433Z,100775.69
2022-08-11T04:26:50.905Z,100766.16
2022-08-11T04:32:09.259Z,100776.13
2022-08-11T04:37:43.160Z,100778.31
2022-08-11T04:43:21.969Z,100773.94
2022-08-11T04:49:04.409Z,100776.59
2022-08-11T04:54:34.189Z,100769.72
2022-08-11T05:00:16.458Z,100770.66
2022-08-11T05:05:54.669Z,100763.50
2022-08-11T05:11:17.103Z,100773.69
2022-08-11T05:16:46.099Z,100774.19
2022-08-11T05:22:15.435Z,100774.75
2022-08-11T05:27:38.780Z,100790.41
2022-08-11T05:33:02.607Z,100786.66
2022-08-11T05:38:28.986Z,100796.94
2022-08-11T05:44:19.737Z,100801.25
2022-08-11T05:49:31.862Z,100790.03
2022-08-11T05:54:54.393Z,100790.22
2022-08-11T06:00:10.418Z,100787.03
2022-08-11T06:05:13.104Z,100798.22
2022-08-11T06:10:26.452Z,100802.50
2022-08-11T06:15:31.015Z,100800.22
2022-08-11T06:20:37.370Z,100799.03
2022-08-11T06:25:39.416Z,100800.16
2022-08-11T06:30:44.242Z,100805.94
2022-08-11T06:36:04.017Z,100796.94
2022-08-11T06:41:32.092Z,100801.50
2022-08-11T06:46:39.479Z,100806.75
2022-08-11T06:51:41.783Z,100807.38
2022-08-11T06:57:28.871Z,100807.75
2022-08-11T07:02:34.423Z,100821.13
2022-08-11T07:08:33.803Z,100802.88
2022-08-11T07:13:56.272Z,100803.81
2022-08-11T07:19:21.955Z,100804.81
2022-08-11T07:25:02.121Z,100804.22
2022-08-11T07:30:08.553Z,100799.69
2022-08-11T07:35:13.627Z,100801.13
2022-08-11T07:40:23.118Z,100799.09
2022-08-11T07:45:43.845Z,100790.25
2022-08-11T07:51:05.121Z,100787.31
2022-08-11T07:56:08.040Z,100791.41
2022-08-11T08:01:36.680Z,100785.00
2022-08-11T08:06:57.972Z,100782.09
2022-08-11T08:12:20.911Z,100779.13
2022-08-11T08:17:42.148Z,100776.09
2022-08-11T08:22:47.948Z,100770.19
2022-08-11T08:27:51.864Z,100759.00
2022-08-11T08:32:57.646Z,100764.09
2022-08-11T08:38:02.388Z,100751.59
2022-08-11T08:43:10.181Z,100751.66
2022-08-11T08:48:15.999Z,100748.13
2022-08-11T08:53:29.657Z,100745.53
2022-08-11T08:58:34.839Z,100744.22
2022-08-11T09:04:05.355Z,100727.72
2022-08-11T09:09:00.240Z,100733.13
2022-08-11T09:14:05.646Z,100728.53
2022-08-11T09:19:08.987Z,100728.69
2022-08-11T09:24:30.717Z,100717.75
2022-08-11T09:29:33.256Z,100726.94
2022-08-11T09:34:37.375Z,100719.66
2022-08-11T09:40:00.609Z,100713.28
2022-08-11T09:45:02.870Z,100715.19
2022-08-11T09:50:06.595Z,100706.59
2022-08-11T09:55:12.123Z,100708.53
2022-08-11T10:00:15.279Z,100707.94
2022-08-11T10:05:39.486Z,100703.09
2022-08-11T10:10:41.923Z,100698.16
2022-08-11T10:16:00.175Z,100699.97
2022-08-11T10:21:12.867Z,100691.16
2022-08-11T10:26:37.054Z,100684.63
2022-08-11T10:32:00.113Z,100681.03
2022-08-11T10:37:07.277Z,100688.56
2022-08-11T10:42:57.259Z,100685.31
2022-08-11T10:47:59.941Z,100669.41
2022-08-11T10:53:21.939Z,100660.28
2022-08-11T10:58:43.219Z,100657.56
2022-08-11T11:03:46.685Z,100654.03
2022-08-11T11:08:58.763Z,100646.75
2022-08-11T11:14:22.223Z,100650.28
2022-08-11T11:19:30.010Z,100649.84
2022-08-11T11:24:50.355Z,100633.13
2022-08-11T11:30:07.332Z,100631.84
2022-08-11T11:35:31.390Z,100619.56
2022-08-11T11:40:34.156Z,100614.97
2022-08-11T11:45:35.998Z,100619.28
2022-08-11T11:50:38.400Z,100608.56
2022-08-11T11:55:41.210Z,100612.00
2022-08-11T12:01:03.013Z,100606.56
2022-08-11T12:06:07.003Z,100603.38
2022-08-11T12:11:30.932Z,100594.53
2022-08-11T12:16:36.804Z,100596.31
2022-08-11T12:22:00.917Z,100586.63
2022-08-11T12:27:24.255Z,100587.19
2022-08-11T12:32:42.652Z,100573.38
2022-08-11T12:37:48.342Z,100573.22
2022-08-11T12:43:38.128Z,100573.50
2022-08-11T12:49:08.331Z,100576.25
2022-08-11T12:54:18.159Z,100555.00
2022-08-11T12:59:38.665Z,100562.34
2022-08-11T13:04:56.233Z,100550.41
2022-08-11T13:10:05.987Z,100538.97
2022-08-11T13:15:17.305Z,100528.78
2022-08-11T13:20:22.161Z,100540.88
2022-08-11T13:25:27.117Z,100523.47
2022-08-11T13:30:49.694Z,100528.56
2022-08-11T13:35:54.392Z,100520.44
2022-08-11T13:40:56.649Z,100521.59
2022-08-11T13:46:18.457Z,100515.03
2022-08-11T13:51:35.115Z,100498.97
2022-08-11T13:56:39.927Z,100497.72
2022-08-11T14:02:20.729Z,100503.56
2022-08-11T14:07:11.737Z,100488.59
2022-08-11T14:12:36.436Z,100486.78
2022-08-11T14:17:48.987Z,100485.44
2022-08-11T14:22:52.508Z,100483.25
2022-08-11T14:28:32.156Z,100484.13
2022-08-11T14:33:20.236Z,100474.00
2022-08-11T14:38:23.288Z,100467.56
2022-08-11T14:44:13.127Z,100468.19
2022-08-11T14:49:06.732Z,100465.66
2022-08-11T14:54:28.645Z,100465.91
2022-08-11T14:59:30.750Z,100458.53
2022-08-11T15:04:35.326Z,100459.88
2022-08-11T15:10:09.808Z,100456.47
2022-08-11T15:15:25.429Z,100453.00
2022-08-11T15:20:48.479Z,100438.84
2022-08-11T15:26:11.731Z,100438.97
2022-08-11T15:31:42.060Z,100436.78
2022-08-11T15:37:15.844Z,100439.47
2022-08-11T15:42:36.153Z,100429.91
2022-08-11T15:47:42.718Z,100433.88
2022-08-11T15:52:52.653Z,100430.34
2022-08-11T15:58:15.895Z,100424.09
2022-08-11T16:04:06.614Z,100426.56
2022-08-11T16:09:08.170Z,100426.06
2022-08-11T16:14:41.706Z,100427.88
2022-08-11T16:19:45.961Z,100426.44
2022-08-11T16:27:05.192Z,100420.25
2022-08-11T16:30:11.995Z,100419.63
2022-08-11T16:35:36.461Z,100412.41
2022-08-11T16:40:40.059Z,100397.09
2022-08-11T16:46:01.793Z,100411.00
2022-08-11T16:51:05.529Z,100412.44
2022-08-11T16:56:09.203Z,100411.31
2022-08-11T17:01:12.832Z,100408.22
2022-08-11T17:06:33.952Z,100416.69
2022-08-11T17:12:11.129Z,100406.25
2022-08-11T17:17:18.359Z,100413.34
2022-08-11T17:22:40.073Z,100417.31
2022-08-11T17:27:43.325Z,100412.47
2022-08-11T17:33:10.194Z,100414.50
2022-08-11T17:38:15.637Z,100409.63
2022-08-11T17:43:35.544Z,100410.88
2022-08-11T17:48:47.899Z,100414.16
2022-08-11T17:54:23.848Z,100417.81
2022-08-11T17:59:48.899Z,100421.66
2022-08-11T18:04:52.900Z,100421.47
2022-08-11T18:10:13.226Z,100420.75
2022-08-11T18:15:33.386Z,100436.38
2022-08-11T18:20:55.330Z,100440.63
2022-08-11T18:26:18.595Z,100442.81
2022-08-11T18:31:40.233Z,100448.84
2022-08-11T18:37:07.641Z,100442.94
2022-08-11T18:42:33.589Z,100447.84
2022-08-11T18:47:57.184Z,100454.78
2022-08-11T18:53:19.210Z,100459.63
2022-08-11T18:58:43.495Z,100462.19
2022-08-11T19:04:11.847Z,100457.31
2022-08-11T19:09:38.414Z,100444.75
2022-08-11T19:15:00.353Z,100449.09
2022-08-11T19:20:27.893Z,100453.56
2022-08-11T19:25:50.675Z,100454.41
2022-08-11T19:31:13.583Z,100459.56
2022-08-11T19:36:35.012Z,100463.03
2022-08-11T19:41:57.933Z,100463.84
2022-08-11T19:47:20.347Z,100463.78
2022-08-11T19:52:42.494Z,100471.19
2022-08-11T19:58:04.170Z,100471.84
2022-08-11T20:03:29.586Z,100474.81
2022-08-11T20:08:55.136Z,100479.44
2022-08-11T20:14:19.880Z,100487.28
2022-08-11T20:19:55.711Z,100494.56
2022-08-11T20:25:16.986Z,100487.88
2022-08-11T20:30:37.931Z,100493.78
2022-08-11T20:35:58.439Z,100480.47
2022-08-11T20:41:20.166Z,100487.88
2022-08-11T20:46:42.017Z,100484.97
2022-08-11T20:52:06.255Z,100489.16
2022-08-11T20:57:46.000Z,100494.38
2022-08-11T21:03:10.364Z,100506.47
2022-08-11T21:08:35.051Z,100497.19
2022-08-11T21:13:59.419Z,100503.28
2022-08-11T21:20:01.259Z,100493.00
2022-08-11T21:25:10.752Z,100498.47
2022-08-11T21:30:31.477Z,100504.50
2022-08-11T21:35:52.282Z,100506.59
2022-08-11T21:41:13.381Z,100518.59
2022-08-11T21:46:36.727Z,100524.88
2022-08-11T21:51:56.915Z,100517.78
2022-08-11T21:57:18.311Z,100517.94
2022-08-11T22:02:39.638Z,100529.03
2022-08-11T22:08:00.731Z,100525.34
2022-08-11T22:13:21.322Z,100528.38
2022-08-11T22:18:43.146Z,100518.28
2022-08-11T22:24:05.480Z,100515.06
2022-08-11T22:29:38.144Z,100507.75
2022-08-11T22:35:12.101Z,100511.88
2022-08-11T22:40:32.871Z,100528.66
2022-08-11T22:45:53.018Z,100516.69
2022-08-11T22:51:16.358Z,100519.44
2022-08-11T22:56:38.058Z,100528.88
2022-08-11T23:01:59.235Z,100535.56
2022-08-11T23:07:50.143Z,100530.75
2022-08-11T23:13:02.298Z,100523.38
2022-08-11T23:18:23.790Z,100527.31
2022-08-11T23:23:47.657Z,100542.56
2022-08-11T23:29:07.880Z,100530.97
2022-08-11T23:35:03.332Z,100534.34
2022-08-11T23:40:17.793Z,100529.59
2022-08-11T23:45:40.759Z,100537.59
2022-08-11T23:51:02.928Z,100524.34
2022-08-11T23:56:23.056Z,100523.09
